Time;durP1;ratioP1;P1;durP2;ratioP2;P2;SDS_P1;SDS_P2;PMS_P1;PMS_P2;Temp;Humidity;BMP_temperature;BMP_pressure;BME280_temperature;BME280_humidity;BME280_pressure;Samples;Min_cycle;Max_cycle;Signal;HPM_P1;HPM_P2
2024/01/24 00:01:40;;;;;;;1.27;0.80;;;13.00;99.90;;;;;;5094771;28;20204;-72
2024/01/24 00:04:06;;;;;;;2.93;1.20;;;13.10;99.90;;;;;;5094659;28;20165;-73
2024/01/24 00:06:31;;;;;;;1.27;1.10;;;13.10;99.90;;;;;;5094548;28;20177;-73
2024/01/24 00:08:57;;;;;;;2.87;1.20;;;13.10;99.90;;;;;;5094748;28;20407;-73
2024/01/24 00:11:22;;;;;;;2.60;1.03;;;13.10;99.90;;;;;;5094657;28;20659;-72
2024/01/24 00:13:49;;;;;;;1.77;1.40;;;13.10;99.90;;;;;;5076548;28;20173;-73
2024/01/24 00:16:15;;;;;;;1.97;1.00;;;13.10;99.90;;;;;;5094331;28;20272;-73
2024/01/24 00:18:40;;;;;;;1.40;0.93;;;13.10;99.90;;;;;;5094860;28;20399;-73
2024/01/24 00:21:06;;;;;;;1.73;0.93;;;13.10;99.90;;;;;;5094173;28;20216;-72
2024/01/24 00:23:31;;;;;;;2.80;1.50;;;13.10;99.90;;;;;;5093664;28;20166;-72
2024/01/24 00:25:57;;;;;;;1.67;1.10;;;13.10;99.90;;;;;;5093931;28;20268;-72
2024/01/24 00:28:26;;;;;;;3.37;1.17;;;13.10;99.90;;;;;;5094466;28;20615;-72
2024/01/24 00:30:52;;;;;;;3.00;1.20;;;13.10;99.90;;;;;;5093732;28;20154;-72
2024/01/24 00:33:17;;;;;;;2.10;1.33;;;13.10;99.90;;;;;;5093586;28;20398;-73
2024/01/24 00:35:43;;;;;;;2.07;1.30;;;13.10;99.90;;;;;;5093973;28;20419;-72
2024/01/24 00:38:09;;;;;;;2.53;1.30;;;13.10;99.90;;;;;;5094033;28;20279;-73
2024/01/24 00:40:34;;;;;;;2.03;1.20;;;13.10;99.90;;;;;;5094139;28;20212;-72
2024/01/24 00:43:01;;;;;;;2.23;1.30;;;13.10;99.90;;;;;;5093994;28;20162;-72
2024/01/24 00:45:26;;;;;;;2.60;1.30;;;13.10;99.90;;;;;;5093721;28;20236;-72
2024/01/24 00:47:52;;;;;;;2.70;1.10;;;13.20;99.90;;;;;;5075412;28;20411;-72
2024/01/24 00:50:17;;;;;;;2.57;1.37;;;13.20;99.90;;;;;;5093817;28;20180;-73
2024/01/24 00:52:43;;;;;;;2.10;1.30;;;13.20;99.90;;;;;;5093822;28;20693;-73
2024/01/24 00:55:08;;;;;;;1.83;1.40;;;13.20;99.90;;;;;;5093723;28;20192;-73
2024/01/24 00:57:34;;;;;;;4.87;1.70;;;13.20;99.90;;;;;;5093442;28;20208;-74
2024/01/24 01:00:00;;;;;;;3.63;1.63;;;13.20;99.90;;;;;;5093650;28;20161;-73
2024/01/24 01:02:25;;;;;;;1.67;1.17;;;13.30;99.90;;;;;;5093644;28;20173;-72
2024/01/24 01:04:51;;;;;;;6.73;1.80;;;13.30;99.90;;;;;;5093523;28;20188;-72
2024/01/24 01:07:16;;;;;;;3.43;1.43;;;13.30;99.90;;;;;;5075073;28;20174;-72
2024/01/24 01:09:42;;;;;;;1.77;1.27;;;13.40;99.90;;;;;;5093500;28;20192;-72
2024/01/24 01:12:07;;;;;;;6.50;2.57;;;13.40;99.90;;;;;;5093128;28;20181;-72
2024/01/24 01:14:33;;;;;;;3.73;1.60;;;13.40;99.90;;;;;;5093268;28;20181;-72
2024/01/24 01:16:58;;;;;;;1.37;1.27;;;13.40;99.90;;;;;;5074922;28;20197;-72
2024/01/24 01:19:24;;;;;;;2.40;1.47;;;13.40;99.90;;;;;;5093379;28;20244;-73
2024/01/24 01:21:49;;;;;;;2.30;1.77;;;13.40;99.90;;;;;;5093375;28;20170;-73
2024/01/24 01:24:15;;;;;;;3.33;1.30;;;13.40;99.90;;;;;;5093404;28;20182;-72
2024/01/24 01:26:40;;;;;;;2.47;1.57;;;13.40;99.90;;;;;;5092948;28;20165;-73
2024/01/24 01:29:06;;;;;;;6.83;2.43;;;13.50;99.90;;;;;;5093039;28;20533;-72
2024/01/24 01:31:31;;;;;;;5.43;1.43;;;13.50;99.90;;;;;;5075203;28;20166;-73
2024/01/24 01:33:57;;;;;;;3.37;1.63;;;13.50;99.90;;;;;;5092963;28;20178;-73
2024/01/24 01:36:23;;;;;;;3.80;1.50;;;13.50;99.90;;;;;;5093104;28;20606;-73
2024/01/24 01:38:48;;;;;;;3.13;1.37;;;13.50;99.90;;;;;;5092645;28;20170;-73
2024/01/24 01:41:14;;;;;;;2.30;1.47;;;13.60;99.90;;;;;;5093050;28;20154;-73
2024/01/24 01:43:39;;;;;;;3.40;1.53;;;13.60;99.90;;;;;;5092886;28;20166;-72
2024/01/24 01:46:15;;;;;;;4.53;1.37;;;13.60;99.90;;;;;;5092565;28;20196;-72
2024/01/24 01:48:41;;;;;;;1.20;1.10;;;13.60;99.90;;;;;;5092729;28;20173;-72
2024/01/24 01:51:07;;;;;;;3.97;1.43;;;13.60;99.90;;;;;;5092773;28;20420;-72
2024/01/24 01:53:38;;;;;;;2.67;1.33;;;13.60;99.90;;;;;;5092670;28;20168;-72
2024/01/24 01:56:07;;;;;;;1.67;1.20;;;13.60;99.90;;;;;;5092354;28;20212;-72
2024/01/24 01:58:35;;;;;;;4.30;1.20;;;13.70;99.90;;;;;;5092664;28;20428;-73
2024/01/24 02:01:01;;;;;;;2.60;1.17;;;13.70;99.90;;;;;;5092147;28;20454;-72
2024/01/24 02:03:27;;;;;;;1.80;1.30;;;13.70;99.90;;;;;;5092443;28;20899;-73
2024/01/24 02:05:52;;;;;;;3.07;1.20;;;13.70;99.90;;;;;;5092214;28;20236;-73
2024/01/24 02:08:18;;;;;;;2.10;1.20;;;13.70;99.90;;;;;;5074173;28;20181;-73
2024/01/24 02:10:44;;;;;;;1.27;1.17;;;13.80;99.90;;;;;;5092454;28;20169;-72
2024/01/24 02:13:11;;;;;;;1.83;1.20;;;13.80;99.90;;;;;;5092307;28;20651;-73
2024/01/24 02:15:37;;;;;;;1.30;1.20;;;13.80;99.90;;;;;;5092135;28;20578;-72
2024/01/24 02:18:03;;;;;;;1.97;1.10;;;13.80;99.90;;;;;;5092173;28;20572;-73
2024/01/24 02:20:31;;;;;;;1.40;1.00;;;13.80;99.90;;;;;;5092394;28;20851;-73
2024/01/24 02:22:56;;;;;;;2.33;1.10;;;13.80;99.90;;;;;;5092260;28;20404;-72
2024/01/24 02:25:22;;;;;;;1.50;1.20;;;13.80;99.90;;;;;;5091974;28;21081;-73
2024/01/24 02:27:47;;;;;;;3.53;1.33;;;13.90;99.90;;;;;;5091725;28;20177;-72
2024/01/24 02:30:14;;;;;;;1.27;1.17;;;13.90;99.90;;;;;;5092104;28;20161;-73
2024/01/24 02:32:39;;;;;;;3.43;1.10;;;13.90;99.90;;;;;;5092012;28;20173;-73
2024/01/24 02:35:05;;;;;;;1.53;1.30;;;13.90;99.90;;;;;;5092021;28;20505;-73
2024/01/24 02:37:31;;;;;;;2.23;1.33;;;13.90;99.90;;;;;;5091491;28;20243;-72
2024/01/24 02:39:56;;;;;;;3.37;1.67;;;14.00;99.90;;;;;;5091685;28;20407;-73
2024/01/24 02:42:22;;;;;;;1.80;0.90;;;14.00;99.90;;;;;;5091852;28;20176;-73
2024/01/24 02:44:48;;;;;;;2.50;0.93;;;14.00;99.90;;;;;;5091849;28;20191;-72
2024/01/24 02:47:13;;;;;;;0.90;0.80;;;14.00;99.90;;;;;;5091596;28;20640;-73
2024/01/24 02:49:39;;;;;;;0.90;0.70;;;14.00;99.90;;;;;;5073778;28;20173;-73
2024/01/24 02:52:05;;;;;;;3.43;0.70;;;14.00;99.90;;;;;;5091787;28;20177;-73
2024/01/24 02:54:30;;;;;;;0.90;0.70;;;14.10;99.90;;;;;;5092238;28;20519;-72
2024/01/24 02:56:56;;;;;;;1.23;1.00;;;14.00;99.90;;;;;;5092577;28;20258;-72
2024/01/24 02:59:21;;;;;;;2.20;0.97;;;14.10;99.90;;;;;;5091910;28;20208;-73
2024/01/24 03:01:47;;;;;;;1.20;0.80;;;14.10;99.90;;;;;;5091649;28;20162;-74
2024/01/24 03:04:13;;;;;;;1.10;0.80;;;14.10;99.90;;;;;;5073486;28;20544;-72
2024/01/24 03:06:40;;;;;;;3.53;1.03;;;14.10;99.90;;;;;;5091554;28;20172;-73
2024/01/24 03:09:06;;;;;;;1.30;0.80;;;14.10;99.90;;;;;;5091844;28;20157;-72
2024/01/24 03:11:31;;;;;;;3.13;1.10;;;14.10;99.90;;;;;;5091834;28;20399;-72
2024/01/24 03:13:57;;;;;;;0.90;0.73;;;14.00;99.90;;;;;;5093013;28;20675;-73
2024/01/24 03:16:22;;;;;;;0.97;0.70;;;14.10;99.90;;;;;;5095453;28;20195;-73
2024/01/24 03:18:48;;;;;;;0.80;0.60;;;14.00;99.90;;;;;;5095677;28;20173;-73
2024/01/24 03:21:16;;;;;;;1.00;0.63;;;14.00;99.90;;;;;;5095754;28;20153;-72
2024/01/24 03:23:42;;;;;;;0.80;0.70;;;13.90;99.90;;;;;;5077497;28;20431;-72
2024/01/24 03:26:08;;;;;;;1.00;0.87;;;13.90;99.90;;;;;;5095395;28;20415;-72
2024/01/24 03:28:34;;;;;;;1.33;0.70;;;13.90;99.90;;;;;;5095217;28;20395;-72
2024/01/24 03:31:00;;;;;;;1.40;0.97;;;13.90;99.90;;;;;;5095429;28;20406;-73
2024/01/24 03:33:26;;;;;;;0.80;0.60;;;13.90;99.90;;;;;;5095144;28;20434;-73
2024/01/24 03:35:51;;;;;;;1.20;0.80;;;13.90;99.90;;;;;;5095290;28;20866;-72
2024/01/24 03:38:18;;;;;;;0.80;0.60;;;13.90;99.90;;;;;;5095098;28;20208;-72
2024/01/24 03:40:44;;;;;;;4.50;2.67;;;13.90;99.90;;;;;;5095316;28;20166;-72
2024/01/24 03:43:10;;;;;;;1.40;1.00;;;13.90;99.90;;;;;;5095240;28;20395;-73
2024/01/24 03:45:37;;;;;;;2.13;0.80;;;13.80;99.90;;;;;;5095004;28;20660;-73
2024/01/24 03:48:03;;;;;;;2.97;0.70;;;13.80;99.90;;;;;;5095176;28;20406;-73
2024/01/24 03:50:29;;;;;;;1.27;0.80;;;13.70;99.90;;;;;;5094907;28;20431;-73
2024/01/24 03:52:54;;;;;;;1.43;0.97;;;13.70;99.90;;;;;;5095142;28;20843;-73
2024/01/24 03:55:20;;;;;;;0.80;0.60;;;13.70;99.90;;;;;;5095006;28;20193;-73
2024/01/24 03:57:45;;;;;;;0.80;0.60;;;13.70;99.90;;;;;;5094578;28;20194;-73
2024/01/24 04:00:12;;;;;;;1.93;0.60;;;13.70;99.90;;;;;;5094500;28;20162;-72
2024/01/24 04:02:37;;;;;;;1.10;0.77;;;13.70;99.90;;;;;;5093803;28;20187;-72
2024/01/24 04:05:03;;;;;;;2.00;1.27;;;13.80;99.90;;;;;;5093522;28;20502;-72
2024/01/24 04:07:28;;;;;;;0.80;0.60;;;13.80;99.90;;;;;;5093559;28;20246;-72
2024/01/24 04:09:54;;;;;;;1.70;0.70;;;13.80;99.90;;;;;;5094751;28;20220;-73
2024/01/24 04:12:19;;;;;;;2.33;0.63;;;13.80;99.90;;;;;;5094661;28;20169;-73
2024/01/24 04:14:45;;;;;;;0.90;0.73;;;13.80;99.90;;;;;;5093459;28;20535;-73
2024/01/24 04:17:11;;;;;;;0.83;0.60;;;13.80;99.90;;;;;;5093846;28;20193;-73
2024/01/24 04:19:37;;;;;;;1.83;0.60;;;13.80;99.90;;;;;;5094154;28;20400;-73
2024/01/24 04:22:03;;;;;;;1.10;0.80;;;13.90;99.90;;;;;;5094397;28;20162;-73
2024/01/24 04:24:29;;;;;;;0.80;0.60;;;13.90;99.90;;;;;;5093974;28;20429;-73
2024/01/24 04:26:55;;;;;;;0.90;0.73;;;13.90;99.90;;;;;;5093794;28;20166;-73
2024/01/24 04:29:20;;;;;;;0.90;0.60;;;13.90;99.90;;;;;;5094309;28;20174;-73
2024/01/24 04:31:45;;;;;;;0.70;0.50;;;13.90;99.90;;;;;;5076358;28;20763;-73
2024/01/24 04:34:11;;;;;;;0.80;0.60;;;13.90;99.90;;;;;;5094153;28;20170;-72
2024/01/24 04:36:37;;;;;;;0.70;0.50;;;13.90;99.90;;;;;;5093851;28;20200;-72
2024/01/24 04:39:02;;;;;;;0.80;0.60;;;13.90;99.90;;;;;;5094231;28;20169;-72
2024/01/24 04:41:28;;;;;;;0.70;0.50;;;13.90;99.90;;;;;;5094271;28;20556;-73
2024/01/24 04:43:53;;;;;;;1.93;0.70;;;14.00;99.90;;;;;;5093894;28;20263;-72
2024/01/24 04:46:19;;;;;;;3.57;0.80;;;14.00;99.90;;;;;;5093779;28;20193;-73
2024/01/24 04:48:45;;;;;;;0.70;0.60;;;14.10;99.90;;;;;;5093961;28;20590;-73
2024/01/24 04:51:11;;;;;;;0.70;0.50;;;14.00;99.90;;;;;;5093348;28;20594;-73
2024/01/24 04:53:36;;;;;;;0.90;0.60;;;14.00;99.90;;;;;;5093856;28;20169;-73
2024/01/24 04:56:03;;;;;;;1.17;0.60;;;14.00;99.90;;;;;;5075254;28;20542;-73
2024/01/24 04:58:29;;;;;;;0.80;0.57;;;13.90;99.90;;;;;;5075657;28;20169;-73
2024/01/24 05:00:54;;;;;;;1.53;0.70;;;14.00;99.90;;;;;;5093711;28;20890;-73
2024/01/24 05:03:20;;;;;;;0.90;0.80;;;13.90;99.90;;;;;;5093615;28;20408;-72
2024/01/24 05:05:46;;;;;;;0.90;0.60;;;13.90;99.90;;;;;;5093350;28;20181;-73
2024/01/24 05:08:12;;;;;;;0.70;0.50;;;13.80;99.90;;;;;;5093513;28;20495;-73
2024/01/24 05:10:37;;;;;;;0.80;0.60;;;13.70;99.90;;;;;;5093367;28;20170;-73
2024/01/24 05:13:03;;;;;;;1.00;0.67;;;13.60;99.90;;;;;;5093094;28;20170;-73
2024/01/24 05:15:29;;;;;;;0.80;0.57;;;13.60;99.90;;;;;;5075077;28;20204;-72
2024/01/24 05:17:55;;;;;;;1.27;0.60;;;13.60;99.90;;;;;;5093165;28;20617;-72
2024/01/24 05:20:20;;;;;;;0.80;0.60;;;13.70;99.90;;;;;;5093408;28;20185;-73
2024/01/24 05:22:47;;;;;;;0.80;0.60;;;13.70;99.90;;;;;;5093357;28;20743;-73
2024/01/24 05:25:12;;;;;;;1.10;0.70;;;13.80;99.90;;;;;;5093093;28;20186;-73
2024/01/24 05:27:38;;;;;;;0.90;0.77;;;13.90;99.90;;;;;;5092885;28;20418;-73
2024/01/24 05:30:04;;;;;;;1.20;0.90;;;13.90;99.90;;;;;;5093261;28;20176;-73
2024/01/24 05:32:30;;;;;;;1.00;0.80;;;13.80;99.90;;;;;;5093170;28;20547;-73
2024/01/24 05:34:55;;;;;;;1.53;0.80;;;13.80;99.90;;;;;;5093139;28;20434;-73
2024/01/24 05:37:21;;;;;;;0.77;0.57;;;13.70;99.90;;;;;;5093052;28;20707;-73
2024/01/24 05:39:47;;;;;;;1.37;0.83;;;13.70;99.90;;;;;;5093011;28;20189;-73
2024/01/24 05:42:12;;;;;;;1.10;0.80;;;13.50;99.90;;;;;;5092941;28;20166;-73
2024/01/24 05:44:38;;;;;;;9.30;1.20;;;13.40;99.90;;;;;;5092862;28;20425;-72
2024/01/24 05:47:04;;;;;;;4.23;1.73;;;13.30;99.90;;;;;;5092800;28;20245;-72
2024/01/24 05:49:29;;;;;;;1.37;0.93;;;13.20;99.90;;;;;;5092898;28;20185;-73
2024/01/24 05:51:55;;;;;;;3.33;0.80;;;13.20;99.90;;;;;;5092561;28;20869;-73
2024/01/24 05:54:21;;;;;;;5.70;1.17;;;13.10;99.90;;;;;;5092696;28;20193;-73
2024/01/24 05:56:46;;;;;;;2.77;1.10;;;13.10;99.90;;;;;;5092398;28;20649;-72
2024/01/24 05:59:12;;;;;;;2.73;1.20;;;13.00;99.90;;;;;;5092686;28;20410;-72
2024/01/24 06:01:37;;;;;;;5.53;1.47;;;13.00;99.90;;;;;;5092789;28;20162;-72
2024/01/24 06:04:03;;;;;;;3.00;1.10;;;12.90;99.90;;;;;;5092463;28;20296;-72
2024/01/24 06:06:29;;;;;;;2.50;1.13;;;12.90;99.90;;;;;;5092389;28;20180;-72
2024/01/24 06:08:54;;;;;;;4.03;1.30;;;12.90;99.90;;;;;;5092455;28;20178;-73
2024/01/24 06:11:20;;;;;;;6.33;1.50;;;12.90;99.90;;;;;;5092541;28;20178;-73
2024/01/24 06:13:45;;;;;;;3.33;1.17;;;12.90;99.90;;;;;;5092380;28;20169;-73
2024/01/24 06:16:11;;;;;;;1.77;1.07;;;12.90;99.90;;;;;;5092022;28;20204;-72
2024/01/24 06:18:36;;;;;;;3.77;1.40;;;12.90;99.90;;;;;;5092234;28;20208;-73
2024/01/24 06:21:02;;;;;;;4.17;1.80;;;12.90;99.90;;;;;;5074094;28;20343;-73
2024/01/24 06:23:27;;;;;;;3.57;0.90;;;13.00;99.90;;;;;;5092080;28;20256;-73
2024/01/24 06:25:53;;;;;;;3.00;1.50;;;13.00;99.90;;;;;;5092186;28;20188;-72
2024/01/24 06:28:19;;;;;;;6.80;1.40;;;13.10;99.90;;;;;;5091974;28;20173;-72
2024/01/24 06:30:44;;;;;;;5.50;1.87;;;13.10;99.90;;;;;;5092150;28;20177;-72
2024/01/24 06:33:10;;;;;;;5.87;1.57;;;13.10;99.90;;;;;;5092013;28;20169;-72
2024/01/24 06:35:36;;;;;;;2.47;1.30;;;13.10;99.90;;;;;;5091836;28;20197;-73
2024/01/24 06:38:01;;;;;;;6.43;1.80;;;13.20;99.90;;;;;;5091782;28;20193;-73
2024/01/24 06:40:27;;;;;;;6.90;2.10;;;13.10;99.90;;;;;;5091969;28;20176;-73
2024/01/24 06:42:53;;;;;;;13.80;2.60;;;13.10;99.90;;;;;;5091951;28;20616;-73
2024/01/24 06:45:18;;;;;;;11.80;2.30;;;13.10;99.90;;;;;;5091889;28;20318;-73
2024/01/24 06:47:44;;;;;;;9.53;2.83;;;13.00;99.90;;;;;;5091664;28;20585;-73
2024/01/24 06:50:13;;;;;;;6.13;2.00;;;13.00;99.90;;;;;;5091924;28;20578;-73
2024/01/24 06:52:42;;;;;;;6.40;2.00;;;12.90;99.90;;;;;;5091653;28;20709;-73
2024/01/24 06:55:08;;;;;;;8.37;2.10;;;12.90;99.90;;;;;;5091756;28;20431;-73
2024/01/24 06:57:34;;;;;;;14.90;2.33;;;12.80;99.90;;;;;;5091512;28;20509;-73
2024/01/24 07:00:00;;;;;;;16.40;2.53;;;12.80;99.90;;;;;;5073775;28;20415;-72
2024/01/24 07:02:26;;;;;;;7.07;1.93;;;12.70;99.90;;;;;;5073514;28;20170;-72
2024/01/24 07:04:51;;;;;;;9.00;2.40;;;12.70;99.90;;;;;;5091617;28;20188;-72
2024/01/24 07:07:17;;;;;;;6.40;1.77;;;12.60;99.90;;;;;;5073149;28;20416;-72
2024/01/24 07:09:42;;;;;;;10.17;2.70;;;12.60;99.90;;;;;;5091673;28;20180;-72
2024/01/24 07:12:08;;;;;;;14.70;3.53;;;12.50;99.90;;;;;;5091692;28;20211;-72
2024/01/24 07:14:34;;;;;;;9.40;4.20;;;12.40;99.90;;;;;;5073549;28;20193;-72
2024/01/24 07:17:00;;;;;;;14.27;2.50;;;12.40;99.90;;;;;;5091338;28;20450;-71
2024/01/24 07:19:25;;;;;;;11.53;2.77;;;12.40;99.90;;;;;;5091654;28;20527;-71
2024/01/24 07:21:51;;;;;;;12.57;3.43;;;12.30;99.90;;;;;;5091607;28;20391;-72
2024/01/24 07:24:17;;;;;;;12.87;2.53;;;12.30;99.90;;;;;;5091594;28;20728;-72
2024/01/24 07:26:43;;;;;;;9.80;2.63;;;12.20;99.90;;;;;;5091326;28;20192;-72
2024/01/24 07:29:10;;;;;;;10.83;2.17;;;12.20;99.90;;;;;;5091484;28;20311;-71
2024/01/24 07:31:36;;;;;;;16.83;3.57;;;12.20;99.90;;;;;;5091395;28;20407;-72
2024/01/24 07:34:02;;;;;;;18.00;3.10;;;12.20;99.90;;;;;;5091119;28;20409;-72
2024/01/24 07:36:27;;;;;;;14.70;2.40;;;12.20;99.90;;;;;;5091046;28;20470;-72
2024/01/24 07:38:53;;;;;;;8.57;2.80;;;12.10;99.90;;;;;;5091489;28;20629;-72
2024/01/24 07:41:18;;;;;;;12.63;3.60;;;12.20;99.90;;;;;;5091328;28;20194;-72
2024/01/24 07:43:44;;;;;;;17.83;3.10;;;12.20;99.90;;;;;;5091287;28;20170;-67
2024/01/24 07:46:09;;;;;;;11.13;3.70;;;12.40;99.90;;;;;;5090960;28;20185;-68
2024/01/24 07:48:35;;;;;;;16.67;3.53;;;12.30;99.90;;;;;;5091450;28;20166;-68
2024/01/24 07:51:01;;;;;;;20.03;3.37;;;12.40;99.90;;;;;;5091186;28;20174;-68
2024/01/24 07:53:27;;;;;;;10.40;3.70;;;12.50;99.90;;;;;;5091180;28;20592;-68
2024/01/24 07:55:53;;;;;;;13.77;3.13;;;12.50;99.90;;;;;;5091147;28;20663;-68
2024/01/24 07:58:18;;;;;;;17.43;2.50;;;12.50;99.90;;;;;;5090829;28;20447;-68
2024/01/24 08:00:44;;;;;;;10.63;3.20;;;12.60;99.90;;;;;;5093915;28;20460;-68
2024/01/24 08:03:09;;;;;;;14.80;3.57;;;12.60;99.90;;;;;;5094690;28;20257;-67
2024/01/24 08:05:35;;;;;;;16.50;3.73;;;12.60;99.90;;;;;;5094445;28;20181;-67
2024/01/24 08:08:01;;;;;;;8.47;2.73;;;12.60;99.90;;;;;;5094623;28;20169;-68
2024/01/24 08:10:27;;;;;;;11.53;3.47;;;12.60;99.90;;;;;;5094793;28;20177;-68
2024/01/24 08:12:52;;;;;;;15.07;3.10;;;12.60;99.90;;;;;;5094588;28;20395;-68
2024/01/24 08:15:18;;;;;;;8.00;1.93;;;12.60;99.90;;;;;;5076265;28;20657;-68
2024/01/24 08:17:44;;;;;;;18.40;3.10;;;12.60;99.90;;;;;;5094227;28;20197;-67
2024/01/24 08:20:10;;;;;;;8.93;2.53;;;12.60;99.90;;;;;;5094502;28;20179;-68
2024/01/24 08:22:36;;;;;;;13.10;3.20;;;12.80;99.90;;;;;;5094449;28;20215;-68
2024/01/24 08:25:02;;;;;;;10.13;3.67;;;12.80;99.90;;;;;;5094383;28;21096;-68
2024/01/24 08:27:28;;;;;;;15.30;2.77;;;12.70;99.90;;;;;;5094077;28;20514;-68
2024/01/24 08:29:53;;;;;;;10.70;2.83;;;12.70;99.90;;;;;;5094389;28;20491;-68
2024/01/24 08:32:19;;;;;;;20.33;3.47;;;12.80;99.90;;;;;;5094171;28;20327;-68
2024/01/24 08:34:44;;;;;;;12.83;4.17;;;12.80;99.90;;;;;;5094128;28;20193;-67
2024/01/24 08:37:10;;;;;;;11.03;3.00;;;12.80;99.90;;;;;;5093722;28;20185;-68
2024/01/24 08:39:36;;;;;;;12.03;3.20;;;12.70;99.90;;;;;;5094223;28;20211;-67
2024/01/24 08:42:02;;;;;;;19.03;3.00;;;12.70;99.90;;;;;;5094339;28;20244;-68
2024/01/24 08:44:28;;;;;;;7.47;3.77;;;12.80;99.90;;;;;;5094261;28;20675;-67
2024/01/24 08:46:54;;;;;;;17.27;3.57;;;12.90;99.90;;;;;;5093648;28;20415;-67
2024/01/24 08:49:19;;;;;;;13.10;2.87;;;12.90;99.90;;;;;;5092904;28;20197;-68
2024/01/24 08:51:45;;;;;;;26.97;4.30;;;13.00;99.90;;;;;;5093792;28;20193;-68
2024/01/24 08:54:11;;;;;;;18.73;3.97;;;13.00;99.90;;;;;;5075662;28;20693;-67
2024/01/24 08:56:37;;;;;;;11.67;3.30;;;12.90;99.90;;;;;;5093561;28;20197;-67
2024/01/24 08:59:03;;;;;;;22.23;3.97;;;12.90;99.90;;;;;;5093806;28;20244;-66
2024/01/24 09:01:29;;;;;;;13.70;3.60;;;12.90;99.90;;;;;;5093709;28;20886;-66
2024/01/24 09:03:54;;;;;;;15.00;4.87;;;13.00;99.90;;;;;;5093517;28;20538;-67
2024/01/24 09:06:25;;;;;;;12.57;3.07;;;13.00;99.90;;;;;;5093413;28;20563;-66
2024/01/24 09:08:54;;;;;;;17.10;3.30;;;13.00;99.90;;;;;;5093606;28;20185;-67
2024/01/24 09:11:20;;;;;;;14.10;3.47;;;13.10;99.90;;;;;;5092374;28;20400;-66
2024/01/24 09:13:47;;;;;;;16.03;3.70;;;13.20;99.90;;;;;;5093473;28;20396;-67
2024/01/24 09:16:13;;;;;;;11.57;2.70;;;13.30;99.90;;;;;;5093021;28;20423;-67
2024/01/24 09:18:39;;;;;;;19.07;4.10;;;13.30;99.90;;;;;;5093359;28;20841;-66
2024/01/24 09:21:05;;;;;;;12.20;3.60;;;13.30;99.90;;;;;;5093343;28;20414;-67
2024/01/24 09:23:31;;;;;;;19.57;4.43;;;13.30;99.90;;;;;;5093272;28;20878;-67
2024/01/24 09:25:56;;;;;;;16.23;3.93;;;13.20;99.90;;;;;;5093026;28;20185;-66
2024/01/24 09:28:22;;;;;;;12.57;3.53;;;13.30;99.90;;;;;;5093115;28;20959;-67
2024/01/24 09:30:47;;;;;;;14.73;4.10;;;13.20;99.90;;;;;;5093186;28;20203;-66
2024/01/24 09:33:13;;;;;;;9.20;3.77;;;13.30;99.90;;;;;;5092949;28;20161;-66
2024/01/24 09:35:40;;;;;;;8.97;2.97;;;13.70;99.90;;;;;;5092769;28;20529;-66
2024/01/24 09:38:06;;;;;;;17.03;3.90;;;14.00;99.90;;;;;;5092886;28;20186;-66
2024/01/24 09:40:31;;;;;;;10.77;3.50;;;14.20;99.90;;;;;;5074789;28;20415;-67
2024/01/24 09:43:00;;;;;;;11.43;4.23;;;14.20;99.90;;;;;;5092882;28;20215;-66
2024/01/24 09:45:28;;;;;;;14.80;4.47;;;14.10;99.90;;;;;;5092808;28;20189;-67
2024/01/24 09:47:56;;;;;;;18.37;4.80;;;13.90;99.90;;;;;;5093005;28;20454;-66
2024/01/24 09:50:23;;;;;;;8.33;2.97;;;13.90;99.90;;;;;;5092706;28;20951;-67
2024/01/24 09:52:49;;;;;;;16.23;4.20;;;14.00;99.90;;;;;;5092739;28;20407;-67
2024/01/24 09:55:17;;;;;;;17.03;3.60;;;14.30;99.90;;;;;;5074353;28;20969;-67
2024/01/24 09:57:47;;;;;;;9.77;3.00;;;14.90;99.90;;;;;;5092275;28;20834;-68
2024/01/24 10:00:14;;;;;;;9.67;3.30;;;15.10;99.90;;;;;;5092658;28;20482;-67
2024/01/24 10:02:44;;;;;;;19.87;4.40;;;15.20;99.90;;;;;;5092478;28;20754;-67
2024/01/24 10:05:15;;;;;;;16.43;3.33;;;15.30;99.90;;;;;;5092469;28;20797;-67
2024/01/24 10:07:41;;;;;;;21.20;4.97;;;15.40;99.90;;;;;;5092278;28;20399;-67
2024/01/24 10:10:09;;;;;;;17.80;3.70;;;15.70;99.90;;;;;;5092456;28;20809;-68
2024/01/24 10:12:35;;;;;;;17.33;4.40;;;15.90;99.90;;;;;;5092460;28;20396;-68
2024/01/24 10:15:01;;;;;;;17.03;3.47;;;15.80;99.90;;;;;;5092205;28;20430;-67
2024/01/24 10:17:27;;;;;;;12.57;3.80;;;15.80;99.90;;;;;;5091969;28;20455;-68
2024/01/24 10:19:52;;;;;;;11.40;3.63;;;15.50;99.90;;;;;;5092338;28;20774;-68
2024/01/24 10:22:19;;;;;;;17.60;4.93;;;15.30;99.90;;;;;;5091859;28;20525;-67
2024/01/24 10:24:45;;;;;;;20.20;3.73;;;15.20;99.90;;;;;;5092208;28;20177;-68
2024/01/24 10:27:11;;;;;;;15.60;3.80;;;14.80;99.90;;;;;;5091979;28;20399;-66
2024/01/24 10:29:40;;;;;;;13.60;3.20;;;14.60;99.90;;;;;;5092127;28;20410;-67
2024/01/24 10:32:11;;;;;;;28.53;4.60;;;14.60;99.90;;;;;;5092087;28;20165;-66
2024/01/24 10:34:37;;;;;;;17.33;4.37;;;14.60;99.90;;;;;;5091984;28;20423;-67
2024/01/24 10:37:06;;;;;;;18.23;3.87;;;14.70;99.90;;;;;;5091764;28;20450;-66
2024/01/24 10:39:35;;;;;;;16.70;3.33;;;14.80;99.90;;;;;;5092074;28;20565;-66
2024/01/24 10:42:06;;;;;;;8.53;4.10;;;14.70;99.90;;;;;;5091889;28;20400;-67
2024/01/24 10:44:35;;;;;;;11.83;3.40;;;14.70;99.90;;;;;;5091717;28;20803;-68
2024/01/24 10:47:02;;;;;;;18.23;3.80;;;14.80;99.90;;;;;;5091610;28;20486;-67
2024/01/24 10:49:29;;;;;;;13.10;3.60;;;14.70;99.90;;;;;;5091855;28;20546;-67
2024/01/24 10:51:55;;;;;;;12.77;3.77;;;14.40;99.90;;;;;;5091730;28;20477;-68
2024/01/24 10:54:21;;;;;;;19.23;4.90;;;14.30;99.90;;;;;;5091806;28;20997;-67
2024/01/24 10:56:50;;;;;;;14.13;3.37;;;14.20;99.90;;;;;;5091553;28;20542;-68
2024/01/24 10:59:18;;;;;;;17.13;3.43;;;14.10;99.90;;;;;;5091897;28;20157;-67
2024/01/24 11:01:45;;;;;;;13.00;3.50;;;14.20;99.90;;;;;;5091861;28;20395;-67
2024/01/24 11:04:15;;;;;;;15.13;4.50;;;14.40;99.90;;;;;;5091768;28;20395;-67
2024/01/24 11:07:14;;;;;;;29.67;4.60;;;14.70;99.90;;;;;;5091708;28;20533;-67
2024/01/24 11:10:03;;;;;;;14.93;4.00;;;15.20;99.90;;;;;;5076742;28;20419;-68
2024/01/24 11:12:29;;;;;;;20.90;4.97;;;15.20;99.90;;;;;;5091700;28;20769;-68
2024/01/24 11:15:05;;;;;;;16.37;4.23;;;14.90;99.90;;;;;;5091706;28;20423;-67
2024/01/24 11:17:32;;;;;;;16.47;3.63;;;14.60;99.90;;;;;;5091316;28;20189;-67
2024/01/24 11:19:58;;;;;;;16.17;3.70;;;14.70;99.90;;;;;;5091656;28;20403;-68
2024/01/24 11:22:24;;;;;;;12.60;4.37;;;14.50;99.90;;;;;;5091614;28;20396;-67
2024/01/24 11:24:52;;;;;;;9.93;3.40;;;14.50;99.90;;;;;;5091631;28;20231;-68
2024/01/24 11:27:25;;;;;;;22.20;4.93;;;14.50;99.90;;;;;;5091344;28;20773;-68
2024/01/24 11:29:51;;;;;;;15.60;3.90;;;14.40;99.90;;;;;;5091508;28;20426;-67
2024/01/24 11:32:45;;;;;;;18.10;4.60;;;14.40;99.90;;;;;;5091358;28;20438;-66
2024/01/24 11:35:36;;;;;;;12.57;3.30;;;14.30;99.90;;;;;;5093291;28;20423;-66
2024/01/24 11:38:16;;;;;;;13.80;3.13;;;14.10;99.90;;;;;;5095300;28;20457;-68
2024/01/24 11:40:43;;;;;;;23.23;3.80;;;14.00;99.90;;;;;;5095443;28;20521;-68
2024/01/24 11:43:34;;;;;;;22.73;5.43;;;13.90;99.90;;;;;;5095206;28;20494;-66
2024/01/24 11:46:02;;;;;;;12.97;3.70;;;14.00;99.90;;;;;;5094955;28;20774;-67
2024/01/24 11:48:30;;;;;;;11.67;2.70;;;14.10;99.90;;;;;;5094769;28;20786;-67
2024/01/24 11:51:00;;;;;;;10.30;4.10;;;14.30;99.90;;;;;;5094965;28;20415;-67
2024/01/24 11:53:26;;;;;;;15.50;3.10;;;14.40;99.90;;;;;;5095047;28;20400;-67
2024/01/24 11:55:56;;;;;;;11.70;3.77;;;14.70;99.90;;;;;;5094758;28;20430;-67
2024/01/24 11:58:26;;;;;;;17.60;4.83;;;15.20;99.90;;;;;;5094810;28;20869;-67
2024/01/24 12:01:16;;;;;;;16.37;3.30;;;15.80;99.90;;;;;;5094935;28;20400;-67
2024/01/24 12:03:48;;;;;;;18.57;4.47;;;16.10;99.90;;;;;;5094858;28;20412;-67
2024/01/24 12:06:13;;;;;;;13.83;3.67;;;16.70;99.00;;;;;;5094528;28;20930;-67
2024/01/24 12:08:39;;;;;;;20.33;3.97;;;16.90;97.10;;;;;;5094872;28;20431;-69
2024/01/24 12:11:09;;;;;;;15.43;4.13;;;16.80;95.80;;;;;;5094638;28;20200;-68
2024/01/24 12:13:35;;;;;;;15.20;4.07;;;16.60;95.20;;;;;;5094684;28;20165;-68
2024/01/24 12:16:01;;;;;;;15.23;4.57;;;16.30;94.00;;;;;;5094355;28;20807;-67
2024/01/24 12:18:30;;;;;;;12.93;3.47;;;16.10;94.60;;;;;;5094755;28;20442;-68
2024/01/24 12:20:56;;;;;;;10.33;2.93;;;16.10;95.60;;;;;;5094636;28;20473;-67
2024/01/24 12:23:22;;;;;;;11.87;3.70;;;16.10;95.60;;;;;;5094554;28;20404;-67
2024/01/24 12:25:48;;;;;;;15.80;4.27;;;15.90;95.00;;;;;;5094710;28;20414;-67
2024/01/24 12:28:13;;;;;;;9.50;3.00;;;15.80;95.90;;;;;;5094664;28;20404;-67
2024/01/24 12:30:46;;;;;;;27.33;3.80;;;15.70;95.20;;;;;;5094328;28;20178;-67
2024/01/24 12:33:14;;;;;;;14.87;3.33;;;15.60;95.70;;;;;;5094352;28;20264;-67
2024/01/24 12:35:44;;;;;;;20.00;5.23;;;15.10;95.40;;;;;;5094088;28;20432;-66
2024/01/24 12:38:11;;;;;;;18.47;4.30;;;15.10;96.90;;;;;;5094119;28;20487;-66
2024/01/24 12:40:36;;;;;;;17.17;3.83;;;15.10;97.10;;;;;;5094232;28;20392;-68